Time;durP1;ratioP1;P1;durP2;ratioP2;P2;SDS_P1;SDS_P2;PMS_P1;PMS_P2;Temp;Humidity;BMP_temperature;BMP_pressure;BME280_temperature;BME280_humidity;BME280_pressure;Samples;Min_cycle;Max_cycle;Signal;HPM_P1;HPM_P2
2023/04/08 00:00:30;;;;;;;;;;;;;;;;;;1035479;28;2766;-58
2023/04/08 00:01:20;;;;;;;;;;;;;;;;;;1036836;28;4037;-58
2023/04/08 00:01:51;;;;;;;;;;;;;;;;;;1037541;28;4056;-59
2023/04/08 00:02:21;;;;;;;;;;;;;;;;;;1037551;28;2699;-60
2023/04/08 00:02:51;;;;;;;;;;;;;;;;;;1038084;28;3894;-56
2023/04/08 00:03:21;;;;;;;;;;;;;;;;;;1036644;28;2380;-59
2023/04/08 00:03:52;;;;;;;;;;;;;;;;;;1036579;28;4001;-60
2023/04/08 00:04:22;;;;;;;;;;;;;;;;;;1037500;28;2782;-55
2023/04/08 00:04:52;;;;;;;;;;;;;;;;;;1038003;28;3887;-57
2023/04/08 00:05:23;;;;;;;;;;;;;;;;;;1036082;28;2753;-58
2023/04/08 00:05:53;;;;;;;;;;;;;;;;;;1038527;28;3963;-55
2023/04/08 00:06:23;;;;;;;;;;;;;;;;;;1037044;28;2722;-55
2023/04/08 00:06:53;;;;;;;;;;;;;;;;;;1038957;28;4012;-55
2023/04/08 00:07:24;;;;;;;;;;;;;;;;;;1037925;28;3161;-56
2023/04/08 00:07:54;;;;;;;;;;;;;;;;;;1039642;28;3829;-59
2023/04/08 00:08:24;;;;;;;;;;;;;;;;;;1038070;28;2139;-58
2023/04/08 00:08:55;;;;;;;;;;;;;;;;;;1037968;28;4136;-56
2023/04/08 00:09:25;;;;;;;;;;;;;;;;;;1039505;28;1720;-57
2023/04/08 00:09:55;;;;;;;;;;;;;;;;;;1037228;28;4140;-57
2023/04/08 00:10:26;;;;;;;;;;;;;;;;;;1036838;28;2837;-58
2023/04/08 00:10:56;;;;;;;;;;;;;;;;;;1037006;28;3904;-57
2023/04/08 00:11:26;;;;;;;;;;;;;;;;;;1036902;28;3048;-58
2023/04/08 00:11:57;;;;;;;;;;;;;;;;;;1035702;28;3879;-58
2023/04/08 00:12:27;;;;;;;;;;;;;;;;;;1037181;28;2990;-57
2023/04/08 00:12:57;;;;;;;;;;;;;;;;;;1037249;28;3756;-59
2023/04/08 00:13:28;;;;;;;;;;;;;;;;;;1036322;28;2552;-58
2023/04/08 00:13:58;;;;;;;;;;;;;;;;;;1037806;28;4015;-57
2023/04/08 00:14:29;;;;;;;;;;;;;;;;;;1038379;28;1829;-58
2023/04/08 00:14:59;;;;;;;;;;;;;;;;;;1038147;28;3743;-57
2023/04/08 00:15:29;;;;;;;;;;;;;;;;;;1035350;28;2879;-58
2023/04/08 00:16:00;;;;;;;;;;;;;;;;;;1038902;28;3940;-59
2023/04/08 00:16:30;;;;;;;;;;;;;;;;;;1037474;28;2827;-56
2023/04/08 00:17:00;;;;;;;;;;;;;;;;;;1037636;28;4186;-58
2023/04/08 00:17:32;;;;;;;;;;;;;;;;;;1033716;28;3404;-61
2023/04/08 00:18:02;;;;;;;;;;;;;;;;;;1037558;28;4025;-53
2023/04/08 00:18:32;;;;;;;;;;;;;;;;;;1038390;28;2729;-55
2023/04/08 00:19:03;;;;;;;;;;;;;;;;;;1037000;28;3935;-57
2023/04/08 00:19:33;;;;;;;;;;;;;;;;;;1038241;28;3955;-57
2023/04/08 00:20:04;;;;;;;;;;;;;;;;;;1038586;28;2324;-58
2023/04/08 00:20:35;;;;;;;;;;;;;;;;;;1036658;28;3967;-57
2023/04/08 00:21:05;;;;;;;;;;;;;;;;;;1036660;28;2896;-58
2023/04/08 00:21:35;;;;;;;;;;;;;;;;;;1037155;28;3893;-55
2023/04/08 00:22:06;;;;;;;;;;;;;;;;;;1037959;28;1854;-57
2023/04/08 00:22:36;;;;;;;;;;;;;;;;;;1037219;28;4569;-58
2023/04/08 00:23:06;;;;;;;;;;;;;;;;;;1039185;28;2034;-57
2023/04/08 00:23:36;;;;;;;;;;;;;;;;;;1036363;28;4057;-59
2023/04/08 00:24:07;;;;;;;;;;;;;;;;;;1038845;28;2002;-57
2023/04/08 00:24:39;;;;;;;;;;;;;;;;;;1038205;28;4061;-59
2023/04/08 00:25:09;;;;;;;;;;;;;;;;;;1037506;28;2848;-58
2023/04/08 00:25:40;;;;;;;;;;;;;;;;;;1036913;28;4159;-60
2023/04/08 00:26:10;;;;;;;;;;;;;;;;;;1039665;28;1742;-56
2023/04/08 00:26:40;;;;;;;;;;;;;;;;;;1037821;28;4388;-57
2023/04/08 00:27:10;;;;;;;;;;;;;;;;;;1039175;28;1739;-56
2023/04/08 00:27:41;;;;;;;;;;;;;;;;;;1035282;28;4086;-58
2023/04/08 00:28:11;;;;;;;;;;;;;;;;;;1038617;28;3117;-56
2023/04/08 00:28:41;;;;;;;;;;;;;;;;;;1036917;28;4082;-58
2023/04/08 00:29:12;;;;;;;;;;;;;;;;;;1036333;28;2669;-58
2023/04/08 00:29:43;;;;;;;;;;;;;;;;;;1037079;28;4042;-56
2023/04/08 00:30:14;;;;;;;;;;;;;;;;;;1037305;28;2882;-57
2023/04/08 00:30:44;;;;;;;;;;;;;;;;;;1036791;28;4243;-58
2023/04/08 00:31:15;;;;;;;;;;;;;;;;;;1036099;28;2717;-56
2023/04/08 00:31:45;;;;;;;;;;;;;;;;;;1035895;28;4098;-58
2023/04/08 00:32:15;;;;;;;;;;;;;;;;;;1034042;28;1836;-59
2023/04/08 00:32:46;;;;;;;;;;;;;;;;;;1037118;28;3898;-55
2023/04/08 00:33:16;;;;;;;;;;;;;;;;;;1037383;28;2706;-57
2023/04/08 00:33:46;;;;;;;;;;;;;;;;;;1037051;28;4057;-59
2023/04/08 00:34:17;;;;;;;;;;;;;;;;;;1038611;28;1844;-59
2023/04/08 00:34:47;;;;;;;;;;;;;;;;;;1037875;28;4186;-56
2023/04/08 00:35:17;;;;;;;;;;;;;;;;;;1038395;28;1868;-58
2023/04/08 00:35:47;;;;;;;;;;;;;;;;;;1038235;28;3794;-56
2023/04/08 00:36:18;;;;;;;;;;;;;;;;;;1037142;28;1787;-57
2023/04/08 00:36:48;;;;;;;;;;;;;;;;;;1037499;28;4036;-59
2023/04/08 00:37:18;;;;;;;;;;;;;;;;;;1037249;28;2064;-55
2023/04/08 00:37:49;;;;;;;;;;;;;;;;;;1032350;28;4149;-61
2023/04/08 00:38:19;;;;;;;;;;;;;;;;;;1037001;28;3056;-58
2023/04/08 00:38:50;;;;;;;;;;;;;;;;;;1037580;28;4051;-58
2023/04/08 00:39:20;;;;;;;;;;;;;;;;;;1035350;28;3337;-57
2023/04/08 00:39:52;;;;;;;;;;;;;;;;;;1033393;28;3788;-57
2023/04/08 00:40:23;;;;;;;;;;;;;;;;;;1035134;28;2909;-57
2023/04/08 00:40:53;;;;;;;;;;;;;;;;;;1037000;28;4111;-57
2023/04/08 00:41:23;;;;;;;;;;;;;;;;;;1037000;28;2715;-56
2023/04/08 00:41:53;;;;;;;;;;;;;;;;;;1035975;28;3839;-56
2023/04/08 00:42:24;;;;;;;;;;;;;;;;;;1036714;28;2704;-58
2023/04/08 00:42:55;;;;;;;;;;;;;;;;;;1035956;28;3919;-58
2023/04/08 00:43:26;;;;;;;;;;;;;;;;;;1038982;28;2674;-56
2023/04/08 00:43:56;;;;;;;;;;;;;;;;;;1037208;28;4007;-58
2023/04/08 00:44:27;;;;;;;;;;;;;;;;;;1037271;28;2780;-59
2023/04/08 00:44:57;;;;;;;;;;;;;;;;;;1036266;28;3835;-55
2023/04/08 00:45:27;;;;;;;;;;;;;;;;;;1035987;28;4062;-56
2023/04/08 00:45:57;;;;;;;;;;;;;;;;;;1036164;28;3878;-58
2023/04/08 00:46:28;;;;;;;;;;;;;;;;;;1037989;28;2727;-58
2023/04/08 00:46:58;;;;;;;;;;;;;;;;;;1037268;28;3773;-59
2023/04/08 00:47:28;;;;;;;;;;;;;;;;;;1033729;28;2740;-59
2023/04/08 00:48:00;;;;;;;;;;;;;;;;;;1035407;28;4086;-56
2023/04/08 00:48:31;;;;;;;;;;;;;;;;;;1039075;28;2148;-56
2023/04/08 00:49:01;;;;;;;;;;;;;;;;;;1037481;28;3966;-57
2023/04/08 00:49:31;;;;;;;;;;;;;;;;;;1034498;28;2843;-57
2023/04/08 00:50:02;;;;;;;;;;;;;;;;;;1035344;28;3730;-56
2023/04/08 00:50:33;;;;;;;;;;;;;;;;;;1036070;28;3903;-55
2023/04/08 00:51:03;;;;;;;;;;;;;;;;;;1038259;28;3223;-60
2023/04/08 00:51:36;;;;;;;;;;;;;;;;;;1038180;28;4589;-57
2023/04/08 00:52:07;;;;;;;;;;;;;;;;;;1036611;28;2145;-59
2023/04/08 00:52:37;;;;;;;;;;;;;;;;;;1037088;28;4074;-58
2023/04/08 00:53:08;;;;;;;;;;;;;;;;;;1036366;28;2830;-59
2023/04/08 00:53:39;;;;;;;;;;;;;;;;;;1035198;28;3902;-58
2023/04/08 00:54:09;;;;;;;;;;;;;;;;;;1040301;28;2458;-60
2023/04/08 00:54:40;;;;;;;;;;;;;;;;;;1036975;28;3875;-56
2023/04/08 00:55:10;;;;;;;;;;;;;;;;;;1038231;28;2163;-58
2023/04/08 00:55:41;;;;;;;;;;;;;;;;;;1036311;28;4195;-56
2023/04/08 00:56:11;;;;;;;;;;;;;;;;;;1037426;28;1856;-60
2023/04/08 00:56:42;;;;;;;;;;;;;;;;;;1038655;28;4069;-57
2023/04/08 00:57:12;;;;;;;;;;;;;;;;;;1036191;28;2827;-60
2023/04/08 00:57:43;;;;;;;;;;;;;;;;;;1037336;28;4068;-60
2023/04/08 00:58:14;;;;;;;;;;;;;;;;;;1037005;28;1967;-55
2023/04/08 00:58:44;;;;;;;;;;;;;;;;;;1039253;28;4377;-58
2023/04/08 00:59:17;;;;;;;;;;;;;;;;;;1037237;28;2695;-57
2023/04/08 00:59:47;;;;;;;;;;;;;;;;;;1037917;28;4041;-57
2023/04/08 01:00:17;;;;;;;;;;;;;;;;;;1037494;28;2877;-56
2023/04/08 01:00:57;;;;;;;;;;;;;;;;;;1038801;28;3953;-58
2023/04/08 01:01:27;;;;;;;;;;;;;;;;;;1039116;28;1731;-54
2023/04/08 01:02:16;;;;;;;;;;;;;;;;;;1038292;28;4049;-55
2023/04/08 01:03:10;;;;;;;;;;;;;;;;;;1037310;28;3861;-58
2023/04/08 01:03:59;;;;;;;;;;;;;;;;;;1038750;28;4011;-58
2023/04/08 01:04:43;;;;;;;;;;;;;;;;;;1039446;28;2248;-56
2023/04/08 01:05:16;;;;;;;;;;;;;;;;;;1039500;28;3858;-55
2023/04/08 01:05:59;;;;;;;;;;;;;;;;;;1037335;28;4060;-56
2023/04/08 01:06:31;;;;;;;;;;;;;;;;;;1038511;28;1861;-57
2023/04/08 01:07:04;;;;;;;;;;;;;;;;;;1038642;28;4310;-55
2023/04/08 01:07:46;;;;;;;;;;;;;;;;;;1038654;28;4481;-58
2023/04/08 01:08:16;;;;;;;;;;;;;;;;;;1038437;28;2672;-57
2023/04/08 01:08:48;;;;;;;;;;;;;;;;;;1038905;28;3920;-58
2023/04/08 01:09:20;;;;;;;;;;;;;;;;;;1038050;28;3128;-57
2023/04/08 01:09:55;;;;;;;;;;;;;;;;;;1038900;28;4021;-54
2023/04/08 01:10:27;;;;;;;;;;;;;;;;;;1035536;28;2817;-57
2023/04/08 01:10:59;;;;;;;;;;;;;;;;;;1038109;28;3983;-58
2023/04/08 01:11:31;;;;;;;;;;;;;;;;;;1039520;28;1780;-60
2023/04/08 01:12:04;;;;;;;;;;;;;;;;;;1038338;28;3889;-58
2023/04/08 01:12:39;;;;;;;;;;;;;;;;;;1037895;28;4424;-57
2023/04/08 01:13:11;;;;;;;;;;;;;;;;;;1039030;28;2918;-57
2023/04/08 01:13:42;;;;;;;;;;;;;;;;;;1035805;28;4036;-55
2023/04/08 01:14:16;;;;;;;;;;;;;;;;;;1039699;28;1834;-55
2023/04/08 01:14:47;;;;;;;;;;;;;;;;;;1037428;28;4095;-58
2023/04/08 01:15:17;;;;;;;;;;;;;;;;;;1039230;28;1883;-59
2023/04/08 01:15:48;;;;;;;;;;;;;;;;;;1038530;28;3782;-59
2023/04/08 01:16:19;;;;;;;;;;;;;;;;;;1038695;28;1679;-58
2023/04/08 01:16:49;;;;;;;;;;;;;;;;;;1036975;28;3834;-55
2023/04/08 01:17:21;;;;;;;;;;;;;;;;;;1039513;28;1559;-55
2023/04/08 01:17:53;;;;;;;;;;;;;;;;;;1037765;28;4156;-56
2023/04/08 01:18:23;;;;;;;;;;;;;;;;;;1038011;28;1445;-55
2023/04/08 01:18:54;;;;;;;;;;;;;;;;;;1037933;28;4058;-59
2023/04/08 01:19:32;;;;;;;;;;;;;;;;;;1039158;28;1905;-59
2023/04/08 01:20:04;;;;;;;;;;;;;;;;;;1037995;28;3670;-57
2023/04/08 01:20:34;;;;;;;;;;;;;;;;;;1036375;28;3927;-55
2023/04/08 01:21:05;;;;;;;;;;;;;;;;;;1038966;28;1829;-56
2023/04/08 01:21:36;;;;;;;;;;;;;;;;;;1037928;28;3864;-56
2023/04/08 01:22:30;;;;;;;;;;;;;;;;;;1037723;28;2848;-58
2023/04/08 01:23:00;;;;;;;;;;;;;;;;;;1034773;28;4015;-58
2023/04/08 01:23:50;;;;;;;;;;;;;;;;;;1038060;28;2751;-56
2023/04/08 01:24:27;;;;;;;;;;;;;;;;;;1036998;28;4012;-56
2023/04/08 01:25:03;;;;;;;;;;;;;;;;;;1038527;28;4188;-56
2023/04/08 01:25:35;;;;;;;;;;;;;;;;;;1038493;28;3896;-55
2023/04/08 01:26:05;;;;;;;;;;;;;;;;;;1038159;28;2693;-57
2023/04/08 01:26:36;;;;;;;;;;;;;;;;;;1039000;28;4054;-56
2023/04/08 01:27:06;;;;;;;;;;;;;;;;;;1037490;28;2706;-55
2023/04/08 01:27:37;;;;;;;;;;;;;;;;;;1036725;28;3899;-54
2023/04/08 01:28:09;;;;;;;;;;;;;;;;;;1039216;28;1601;-58
2023/04/08 01:28:40;;;;;;;;;;;;;;;;;;1037546;28;4057;-57
2023/04/08 01:29:11;;;;;;;;;;;;;;;;;;1038470;28;2036;-56
2023/04/08 01:29:42;;;;;;;;;;;;;;;;;;1038315;28;3803;-54
2023/04/08 01:30:12;;;;;;;;;;;;;;;;;;1038061;28;2188;-54
2023/04/08 01:30:43;;;;;;;;;;;;;;;;;;1037820;28;4033;-58
2023/04/08 01:31:14;;;;;;;;;;;;;;;;;;1035352;28;1772;-58
2023/04/08 01:31:45;;;;;;;;;;;;;;;;;;1037809;28;3904;-56
2023/04/08 01:32:16;;;;;;;;;;;;;;;;;;1037082;28;2895;-56
2023/04/08 01:32:46;;;;;;;;;;;;;;;;;;1038647;28;4059;-56
2023/04/08 01:33:17;;;;;;;;;;;;;;;;;;1039722;28;1684;-54
2023/04/08 01:33:48;;;;;;;;;;;;;;;;;;1037995;28;3893;-56
2023/04/08 01:34:19;;;;;;;;;;;;;;;;;;1038519;28;2806;-56
2023/04/08 01:34:50;;;;;;;;;;;;;;;;;;1039524;28;3933;-60
2023/04/08 01:35:21;;;;;;;;;;;;;;;;;;1037992;28;2943;-57
2023/04/08 01:35:53;;;;;;;;;;;;;;;;;;1037935;28;4126;-56
2023/04/08 01:36:24;;;;;;;;;;;;;;;;;;1037250;28;2565;-58
2023/04/08 01:36:55;;;;;;;;;;;;;;;;;;1037526;28;3996;-54
2023/04/08 01:37:27;;;;;;;;;;;;;;;;;;1038558;28;1901;-56
2023/04/08 01:37:58;;;;;;;;;;;;;;;;;;1038306;28;4101;-56
2023/04/08 01:38:30;;;;;;;;;;;;;;;;;;1038972;28;1948;-56
2023/04/08 01:39:01;;;;;;;;;;;;;;;;;;1039181;28;4034;-59
2023/04/08 01:39:32;;;;;;;;;;;;;;;;;;1037384;28;2859;-59
2023/04/08 01:40:04;;;;;;;;;;;;;;;;;;1038147;28;3881;-60
2023/04/08 01:40:36;;;;;;;;;;;;;;;;;;1034948;28;4018;-57
2023/04/08 01:41:08;;;;;;;;;;;;;;;;;;1038589;28;1910;-55
2023/04/08 01:41:38;;;;;;;;;;;;;;;;;;1037469;28;3961;-58
2023/04/08 01:42:09;;;;;;;;;;;;;;;;;;1038492;28;3376;-53
2023/04/08 01:42:40;;;;;;;;;;;;;;;;;;1036525;28;3899;-59
2023/04/08 01:43:12;;;;;;;;;;;;;;;;;;1038717;28;2380;-56
2023/04/08 01:43:43;;;;;;;;;;;;;;;;;;1038097;28;3898;-53
2023/04/08 01:44:14;;;;;;;;;;;;;;;;;;1038997;28;1722;-55
2023/04/08 01:44:45;;;;;;;;;;;;;;;;;;1037606;28;3997;-58
2023/04/08 01:45:15;;;;;;;;;;;;;;;;;;1038642;28;1926;-59
2023/04/08 01:45:46;;;;;;;;;;;;;;;;;;1038394;28;3887;-56
2023/04/08 01:46:17;;;;;;;;;;;;;;;;;;1039673;28;1691;-58
2023/04/08 01:46:48;;;;;;;;;;;;;;;;;;1037931;28;3956;-56
2023/04/08 01:47:18;;;;;;;;;;;;;;;;;;1039096;28;1661;-57
2023/04/08 01:47:49;;;;;;;;;;;;;;;;;;1036593;28;4058;-57
2023/04/08 01:48:19;;;;;;;;;;;;;;;;;;1039746;28;1880;-54
2023/04/08 01:48:50;;;;;;;;;;;;;;;;;;1038967;28;4091;-55
2023/04/08 01:49:21;;;;;;;;;;;;;;;;;;1039555;28;1745;-57
2023/04/08 01:49:51;;;;;;;;;;;;;;;;;;1038047;28;4194;-58
2023/04/08 01:50:22;;;;;;;;;;;;;;;;;;1037044;28;2842;-56
2023/04/08 01:50:53;;;;;;;;;;;;;;;;;;1039823;28;4009;-57
2023/04/08 01:51:25;;;;;;;;;;;;;;;;;;1037479;28;2776;-58
2023/04/08 01:51:57;;;;;;;;;;;;;;;;;;1035217;28;5144;-55
2023/04/08 01:52:29;;;;;;;;;;;;;;;;;;1037835;28;3015;-55
2023/04/08 01:52:59;;;;;;;;;;;;;;;;;;1040163;28;3850;-56
2023/04/08 01:53:30;;;;;;;;;;;;;;;;;;1037950;28;2230;-58
2023/04/08 01:54:00;;;;;;;;;;;;;;;;;;1037885;28;3813;-58
2023/04/08 01:54:31;;;;;;;;;;;;;;;;;;1039015;28;1738;-58
2023/04/08 01:55:01;;;;;;;;;;;;;;;;;;1038844;28;3722;-56
2023/04/08 01:55:32;;;;;;;;;;;;;;;;;;1038602;28;2766;-55
2023/04/08 01:56:04;;;;;;;;;;;;;;;;;;1036921;28;3846;-57
2023/04/08 01:56:36;;;;;;;;;;;;;;;;;;1038380;28;3774;-56
2023/04/08 01:57:07;;;;;;;;;;;;;;;;;;1035467;28;1894;-58
2023/04/08 01:57:39;;;;;;;;;;;;;;;;;;1037827;28;3910;-57
2023/04/08 01:58:10;;;;;;;;;;;;;;;;;;1039033;28;2892;-55
2023/04/08 01:58:43;;;;;;;;;;;;;;;;;;1037803;28;3880;-58
2023/04/08 01:59:15;;;;;;;;;;;;;;;;;;1035833;28;2815;-59
2023/04/08 01:59:49;;;;;;;;;;;;;;;;;;1038803;28;4053;-58
2023/04/08 02:00:21;;;;;;;;;;;;;;;;;;1036348;28;2568;-58
2023/04/08 02:00:52;;;;;;;;;;;;;;;;;;1037155;28;3806;-53
2023/04/08 02:01:24;;;;;;;;;;;;;;;;;;1037779;28;2286;-59
2023/04/08 02:01:55;;;;;;;;;;;;;;;;;;1036112;28;4062;-56
2023/04/08 02:02:26;;;;;;;;;;;;;;;;;;1037715;28;2692;-57
2023/04/08 02:02:57;;;;;;;;;;;;;;;;;;1037956;28;3888;-57
2023/04/08 02:03:28;;;;;;;;;;;;;;;;;;1037704;28;3003;-54
2023/04/08 02:03:59;;;;;;;;;;;;;;;;;;1038184;28;4044;-58
2023/04/08 02:04:29;;;;;;;;;;;;;;;;;;1039050;28;2536;-58
2023/04/08 02:04:59;;;;;;;;;;;;;;;;;;1039335;28;3805;-59
2023/04/08 02:05:30;;;;;;;;;;;;;;;;;;1038301;28;2366;-58
2023/04/08 02:06:00;;;;;;;;;;;;;;;;;;1037697;28;3856;-58
2023/04/08 02:06:31;;;;;;;;;;;;;;;;;;1039211;28;1601;-55
2023/04/08 02:07:01;;;;;;;;;;;;;;;;;;1038332;28;3906;-55
2023/04/08 02:07:31;;;;;;;;;;;;;;;;;;1038316;28;1917;-56
2023/04/08 02:08:02;;;;;;;;;;;;;;;;;;1036789;28;3825;-58
2023/04/08 02:08:33;;;;;;;;;;;;;;;;;;1039467;28;1827;-57
2023/04/08 02:09:04;;;;;;;;;;;;;;;;;;1036538;28;3819;-61
2023/04/08 02:09:35;;;;;;;;;;;;;;;;;;1038346;28;4099;-58
2023/04/08 02:10:05;;;;;;;;;;;;;;;;;;1038111;28;2993;-57
2023/04/08 02:10:35;;;;;;;;;;;;;;;;;;1038234;28;4064;-58
2023/04/08 02:11:06;;;;;;;;;;;;;;;;;;1038825;28;2580;-58
2023/04/08 02:11:36;;;;;;;;;;;;;;;;;;1037271;28;4981;-58
2023/04/08 02:12:06;;;;;;;;;;;;;;;;;;1038043;28;3349;-57
2023/04/08 02:12:37;;;;;;;;;;;;;;;;;;1037089;28;4005;-58
2023/04/08 02:13:07;;;;;;;;;;;;;;;;;;1038633;28;2540;-56
2023/04/08 02:13:37;;;;;;;;;;;;;;;;;;1038283;28;4055;-58
2023/04/08 02:14:08;;;;;;;;;;;;;;;;;;1038274;28;2712;-57
2023/04/08 02:14:38;;;;;;;;;;;;;;;;;;1038320;28;4125;-56
2023/04/08 02:15:09;;;;;;;;;;;;;;;;;;1038494;28;2735;-57
2023/04/08 02:15:43;;;;;;;;;;;;;;;;;;1037893;28;3974;-55
2023/04/08 02:16:32;;;;;;;;;;;;;;;;;;1038486;28;1943;-55
2023/04/08 02:17:12;;;;;;;;;;;;;;;;;;1038322;28;3978;-57
2023/04/08 02:17:46;;;;;;;;;;;;;;;;;;1038026;28;4119;-56
2023/04/08 02:18:20;;;;;;;;;;;;;;;;;;1038062;28;1591;-54
2023/04/08 02:18:55;;;;;;;;;;;;;;;;;;1039337;28;4017;-58
2023/04/08 02:19:30;;;;;;;;;;;;;;;;;;1036490;28;1891;-58
2023/04/08 02:20:03;;;;;;;;;;;;;;;;;;1037480;28;3795;-56
2023/04/08 02:20:37;;;;;;;;;;;;;;;;;;1035165;28;4079;-57
2023/04/08 02:21:12;;;;;;;;;;;;;;;;;;1039354;28;3348;-56
2023/04/08 02:21:49;;;;;;;;;;;;;;;;;;1036978;28;4121;-58
2023/04/08 02:22:27;;;;;;;;;;;;;;;;;;1036684;28;2034;-55
2023/04/08 02:23:03;;;;;;;;;;;;;;;;;;1040156;28;3949;-58
2023/04/08 02:23:35;;;;;;;;;;;;;;;;;;1036821;28;3896;-58
2023/04/08 02:24:06;;;;;;;;;;;;;;;;;;1039161;28;2143;-57
2023/04/08 02:24:37;;;;;;;;;;;;;;;;;;1038440;28;4236;-59
2023/04/08 02:25:10;;;;;;;;;;;;;;;;;;1039804;28;1443;-57
2023/04/08 02:25:43;;;;;;;;;;;;;;;;;;1036953;28;4107;-56
2023/04/08 02:26:14;;;;;;;;;;;;;;;;;;1038663;28;1787;-58
2023/04/08 02:26:46;;;;;;;;;;;;;;;;;;1039103;28;4107;-57
2023/04/08 02:27:17;;;;;;;;;;;;;;;;;;1038696;28;2667;-59
2023/04/08 02:27:48;;;;;;;;;;;;;;;;;;1038249;28;3878;-56
2023/04/08 02:28:18;;;;;;;;;;;;;;;;;;1035537;28;1997;-60
2023/04/08 02:28:49;;;;;;;;;;;;;;;;;;1039521;28;4021;-57
2023/04/08 02:29:20;;;;;;;;;;;;;;;;;;1039026;28;2239;-55
2023/04/08 02:29:51;;;;;;;;;;;;;;;;;;1038704;28;3859;-57
2023/04/08 02:30:23;;;;;;;;;;;;;;;;;;1036082;28;2809;-56
2023/04/08 02:30:54;;;;;;;;;;;;;;;;;;1036390;28;4462;-59
2023/04/08 02:31:25;;;;;;;;;;;;;;;;;;1037901;28;2233;-54
2023/04/08 02:31:55;;;;;;;;;;;;;;;;;;1037706;28;3973;-56
2023/04/08 02:32:27;;;;;;;;;;;;;;;;;;1038194;28;2202;-58
2023/04/08 02:33:00;;;;;;;;;;;;;;;;;;1039238;28;3977;-56
2023/04/08 02:33:32;;;;;;;;;;;;;;;;;;1037025;28;2331;-55
2023/04/08 02:34:04;;;;;;;;;;;;;;;;;;1037124;28;3768;-57
2023/04/08 02:34:35;;;;;;;;;;;;;;;;;;1038355;28;4010;-55
2023/04/08 02:35:05;;;;;;;;;;;;;;;;;;1038172;28;1808;-55
2023/04/08 02:35:37;;;;;;;;;;;;;;;;;;1039329;28;3987;-55
2023/04/08 02:36:08;;;;;;;;;;;;;;;;;;1036261;28;2651;-57
2023/04/08 02:36:39;;;;;;;;;;;;;;;;;;1037017;28;4034;-58
2023/04/08 02:37:10;;;;;;;;;;;;;;;;;;1037066;28;2795;-59
2023/04/08 02:37:40;;;;;;;;;;;;;;;;;;1038928;28;4037;-59
2023/04/08 02:38:11;;;;;;;;;;;;;;;;;;1038995;28;1912;-58
2023/04/08 02:38:41;;;;;;;;;;;;;;;;;;1039248;28;4075;-54
2023/04/08 02:39:11;;;;;;;;;;;;;;;;;;1037302;28;2366;-59
2023/04/08 02:39:42;;;;;;;;;;;;;;;;;;1038046;28;3796;-58
2023/04/08 02:40:25;;;;;;;;;;;;;;;;;;1037051;28;2538;-60
2023/04/08 02:40:55;;;;;;;;;;;;;;;;;;1037172;28;3998;-58
2023/04/08 02:41:29;;;;;;;;;;;;;;;;;;1038638;28;1979;-57
2023/04/08 02:41:59;;;;;;;;;;;;;;;;;;1036742;28;4002;-58
2023/04/08 02:42:29;;;;;;;;;;;;;;;;;;1036152;28;2823;-57
2023/04/08 02:43:00;;;;;;;;;;;;;;;;;;1037723;28;4317;-57
2023/04/08 02:43:31;;;;;;;;;;;;;;;;;;1038711;28;1541;-57
2023/04/08 02:44:01;;;;;;;;;;;;;;;;;;1037441;28;4057;-54
2023/04/08 02:44:31;;;;;;;;;;;;;;;;;;1038349;28;1704;-56
2023/04/08 02:45:02;;;;;;;;;;;;;;;;;;1036493;28;3909;-57
2023/04/08 02:45:36;;;;;;;;;;;;;;;;;;1037820;28;1846;-57
2023/04/08 02:46:07;;;;;;;;;;;;;;;;;;1034345;28;3895;-59
2023/04/08 02:46:38;;;;;;;;;;;;;;;;;;1033873;28;4547;-55
2023/04/08 02:47:08;;;;;;;;;;;;;;;;;;1030853;28;2677;-54
2023/04/08 02:47:38;;;;;;;;;;;;;;;;;;1034242;28;4089;-59
2023/04/08 02:48:09;;;;;;;;;;;;;;;;;;1034425;28;1911;-57
2023/04/08 02:48:39;;;;;;;;;;;;;;;;;;1034977;28;4057;-59
2023/04/08 02:49:10;;;;;;;;;;;;;;;;;;1031608;28;2892;-55
2023/04/08 02:49:40;;;;;;;;;;;;;;;;;;1034906;28;3796;-56
2023/04/08 02:50:10;;;;;;;;;;;;;;;;;;1033648;28;1932;-58
2023/04/08 02:50:40;;;;;;;;;;;;;;;;;;1034047;28;3886;-59
2023/04/08 02:51:11;;;;;;;;;;;;;;;;;;1035550;28;1741;-57
2023/04/08 02:51:41;;;;;;;;;;;;;;;;;;1032387;28;4052;-52
2023/04/08 02:52:11;;;;;;;;;;;;;;;;;;1033526;28;2652;-56
2023/04/08 02:52:43;;;;;;;;;;;;;;;;;;1034480;28;3821;-57
2023/04/08 02:53:14;;;;;;;;;;;;;;;;;;1033884;28;2810;-58
2023/04/08 02:53:45;;;;;;;;;;;;;;;;;;1031268;28;3823;-59
2023/04/08 02:54:15;;;;;;;;;;;;;;;;;;1035391;28;1787;-55
2023/04/08 02:54:45;;;;;;;;;;;;;;;;;;1034043;28;3792;-56
2023/04/08 02:55:15;;;;;;;;;;;;;;;;;;1029886;28;1939;-57
2023/04/08 02:55:46;;;;;;;;;;;;;;;;;;1029435;28;4065;-56
2023/04/08 02:56:16;;;;;;;;;;;;;;;;;;1030217;28;2526;-58
2023/04/08 02:56:47;;;;;;;;;;;;;;;;;;1032671;28;4174;-57
2023/04/08 02:57:17;;;;;;;;;;;;;;;;;;1033249;28;1817;-56
2023/04/08 02:57:47;;;;;;;;;;;;;;;;;;1034898;28;3940;-58
2023/04/08 02:58:18;;;;;;;;;;;;;;;;;;1032743;28;2784;-57
2023/04/08 02:58:50;;;;;;;;;;;;;;;;;;1033425;28;4085;-56
2023/04/08 02:59:21;;;;;;;;;;;;;;;;;;1034876;28;1880;-54
2023/04/08 02:59:51;;;;;;;;;;;;;;;;;;1034048;28;4024;-58
2023/04/08 03:00:21;;;;;;;;;;;;;;;;;;1033835;28;2108;-55
2023/04/08 03:00:51;;;;;;;;;;;;;;;;;;1034444;28;4072;-57
2023/04/08 03:01:22;;;;;;;;;;;;;;;;;;1034683;28;1970;-59
2023/04/08 03:01:52;;;;;;;;;;;;;;;;;;1034510;28;3889;-60
2023/04/08 03:02:22;;;;;;;;;;;;;;;;;;1033776;28;1899;-58
2023/04/08 03:02:53;;;;;;;;;;;;;;;;;;1035217;28;3997;-56
2023/04/08 03:03:27;;;;;;;;;;;;;;;;;;1034733;28;2234;-57
2023/04/08 03:03:57;;;;;;;;;;;;;;;;;;1032098;28;4064;-56
2023/04/08 03:04:27;;;;;;;;;;;;;;;;;;1034366;28;1728;-58
2023/04/08 03:04:58;;;;;;;;;;;;;;;;;;1034901;28;3747;-54
2023/04/08 03:05:28;;;;;;;;;;;;;;;;;;1034140;28;1862;-57
2023/04/08 03:05:58;;;;;;;;;;;;;;;;;;1034766;28;3718;-55
2023/04/08 03:06:30;;;;;;;;;;;;;;;;;;1034836;28;2821;-55
2023/04/08 03:07:00;;;;;;;;;;;;;;;;;;1034216;28;3780;-54
2023/04/08 03:07:31;;;;;;;;;;;;;;;;;;1034543;28;2441;-58
2023/04/08 03:08:01;;;;;;;;;;;;;;;;;;1030589;28;3909;-57
2023/04/08 03:08:32;;;;;;;;;;;;;;;;;;1033421;28;2305;-56
2023/04/08 03:09:04;;;;;;;;;;;;;;;;;;1032469;28;4008;-54
2023/04/08 03:09:35;;;;;;;;;;;;;;;;;;1034767;28;4082;-59
2023/04/08 03:10:05;;;;;;;;;;;;;;;;;;1034479;28;1956;-53
2023/04/08 03:10:36;;;;;;;;;;;;;;;;;;1032201;28;4129;-57
2023/04/08 03:11:06;;;;;;;;;;;;;;;;;;1032432;28;2833;-56
2023/04/08 03:11:36;;;;;;;;;;;;;;;;;;1030089;28;4052;-59
2023/04/08 03:12:07;;;;;;;;;;;;;;;;;;1033107;28;2889;-57
2023/04/08 03:12:37;;;;;;;;;;;;;;;;;;1033185;28;4127;-56
2023/04/08 03:13:07;;;;;;;;;;;;;;;;;;1034258;28;2312;-55
2023/04/08 03:13:37;;;;;;;;;;;;;;;;;;1037153;28;4123;-57
2023/04/08 03:14:08;;;;;;;;;;;;;;;;;;1036423;28;1889;-57
2023/04/08 03:14:38;;;;;;;;;;;;;;;;;;1035954;28;3981;-56
2023/04/08 03:15:08;;;;;;;;;;;;;;;;;;1037729;28;1688;-56
2023/04/08 03:15:39;;;;;;;;;;;;;;;;;;1032202;28;4050;-56
2023/04/08 03:16:09;;;;;;;;;;;;;;;;;;1033427;28;1710;-53
2023/04/08 03:16:39;;;;;;;;;;;;;;;;;;1031245;28;4308;-59
2023/04/08 03:17:09;;;;;;;;;;;;;;;;;;1034260;28;1750;-57
2023/04/08 03:17:40;;;;;;;;;;;;;;;;;;1033343;28;3792;-57
2023/04/08 03:18:10;;;;;;;;;;;;;;;;;;1034184;28;2801;-56
2023/04/08 03:18:40;;;;;;;;;;;;;;;;;;1033239;28;4060;-57
2023/04/08 03:19:11;;;;;;;;;;;;;;;;;;1033244;28;1926;-56
2023/04/08 03:19:41;;;;;;;;;;;;;;;;;;1032824;28;4255;-57
2023/04/08 03:20:11;;;;;;;;;;;;;;;;;;1035548;28;1662;-54
2023/04/08 03:20:41;;;;;;;;;;;;;;;;;;1031092;28;3894;-57
2023/04/08 03:21:12;;;;;;;;;;;;;;;;;;1034035;28;2259;-57
2023/04/08 03:21:42;;;;;;;;;;;;;;;;;;1032354;28;3877;-58
2023/04/08 03:22:12;;;;;;;;;;;;;;;;;;1032860;28;2595;-56
2023/04/08 03:22:43;;;;;;;;;;;;;;;;;;1033546;28;3961;-55
2023/04/08 03:23:13;;;;;;;;;;;;;;;;;;1034172;28;1860;-52
2023/04/08 03:23:44;;;;;;;;;;;;;;;;;;1034588;28;4139;-57
2023/04/08 03:24:14;;;;;;;;;;;;;;;;;;1033496;28;1864;-54
2023/04/08 03:24:44;;;;;;;;;;;;;;;;;;1032474;28;3891;-54
2023/04/08 03:25:15;;;;;;;;;;;;;;;;;;1034624;28;1743;-57
2023/04/08 03:25:45;;;;;;;;;;;;;;;;;;1034149;28;4103;-57
2023/04/08 03:26:16;;;;;;;;;;;;;;;;;;1033122;28;2845;-57
2023/04/08 03:26:46;;;;;;;;;;;;;;;;;;1034777;28;4035;-55
2023/04/08 03:27:16;;;;;;;;;;;;;;;;;;1034089;28;1838;-57
2023/04/08 03:27:46;;;;;;;;;;;;;;;;;;1034093;28;4050;-58
2023/04/08 03:28:17;;;;;;;;;;;;;;;;;;1032613;28;3687;-59
2023/04/08 03:28:47;;;;;;;;;;;;;;;;;;1034265;28;4294;-56
2023/04/08 03:29:17;;;;;;;;;;;;;;;;;;1034142;28;1919;-58
2023/04/08 03:29:48;;;;;;;;;;;;;;;;;;1033453;28;3796;-56
2023/04/08 03:30:18;;;;;;;;;;;;;;;;;;1034080;28;2085;-57
2023/04/08 03:30:48;;;;;;;;;;;;;;;;;;1032749;28;4075;-58
2023/04/08 03:31:20;;;;;;;;;;;;;;;;;;1034245;28;1751;-56
2023/04/08 03:31:50;;;;;;;;;;;;;;;;;;1037776;28;4302;-55
2023/04/08 03:32:20;;;;;;;;;;;;;;;;;;1037241;28;2912;-58
2023/04/08 03:32:50;;;;;;;;;;;;;;;;;;1037680;28;4749;-57
2023/04/08 03:33:21;;;;;;;;;;;;;;;;;;1038962;28;1795;-57
2023/04/08 03:33:51;;;;;;;;;;;;;;;;;;1033660;28;4060;-56
2023/04/08 03:34:21;;;;;;;;;;;;;;;;;;1035488;28;1658;-56
2023/04/08 03:34:52;;;;;;;;;;;;;;;;;;1033119;28;3956;-55
2023/04/08 03:35:22;;;;;;;;;;;;;;;;;;1033935;28;1852;-57
2023/04/08 03:35:53;;;;;;;;;;;;;;;;;;1034971;28;4041;-57
2023/04/08 03:36:23;;;;;;;;;;;;;;;;;;1031843;28;3222;-58
2023/04/08 03:36:54;;;;;;;;;;;;;;;;;;1034512;28;4139;-60
2023/04/08 03:37:24;;;;;;;;;;;;;;;;;;1033524;28;2446;-60
2023/04/08 03:37:54;;;;;;;;;;;;;;;;;;1034826;28;4097;-56
2023/04/08 03:38:24;;;;;;;;;;;;;;;;;;1032534;28;1812;-56